sensor_id;sensor_type;location;lat;lon;timestamp;P1;durP1;ratioP1;P2;durP2;ratioP2
46921;SDS011;44039;48.336;10.454;2022-07-25T00:00:51;142.50;;;136.55;;
46921;SDS011;44039;48.336;10.454;2022-07-25T00:03:38;141.07;;;135.18;;
46921;SDS011;44039;48.336;10.454;2022-07-25T00:06:28;142.88;;;136.95;;
46921;SDS011;44039;48.336;10.454;2022-07-25T00:09:15;144.38;;;138.15;;
46921;SDS011;44039;48.336;10.454;2022-07-25T00:12:02;140.82;;;135.00;;
46921;SDS011;44039;48.336;10.454;2022-07-25T00:14:51;142.90;;;136.93;;
46921;SDS011;44039;48.336;10.454;2022-07-25T00:17:38;139.38;;;133.48;;
46921;SDS011;44039;48.336;10.454;2022-07-25T00:20:25;140.63;;;134.50;;
46921;SDS011;44039;48.336;10.454;2022-07-25T00:23:13;135.40;;;129.82;;
46921;SDS011;44039;48.336;10.454;2022-07-25T00:26:00;136.90;;;131.32;;
46921;SDS011;44039;48.336;10.454;2022-07-25T00:28:47;139.18;;;133.27;;
46921;SDS011;44039;48.336;10.454;2022-07-25T00:31:34;138.38;;;132.55;;
46921;SDS011;44039;48.336;10.454;2022-07-25T00:34:21;141.05;;;134.88;;
46921;SDS011;44039;48.336;10.454;2022-07-25T00:37:08;139.18;;;133.30;;
46921;SDS011;44039;48.336;10.454;2022-07-25T00:39:55;139.02;;;132.82;;
46921;SDS011;44039;48.336;10.454;2022-07-25T00:42:42;133.52;;;128.05;;
46921;SDS011;44039;48.336;10.454;2022-07-25T00:45:29;135.38;;;129.70;;
46921;SDS011;44039;48.336;10.454;2022-07-25T00:48:17;132.43;;;126.93;;
46921;SDS011;44039;48.336;10.454;2022-07-25T00:51:04;132.90;;;127.00;;
46921;SDS011;44039;48.336;10.454;2022-07-25T00:53:51;134.63;;;128.43;;
46921;SDS011;44039;48.336;10.454;2022-07-25T00:56:38;134.07;;;128.13;;
46921;SDS011;44039;48.336;10.454;2022-07-25T00:59:25;133.43;;;127.53;;
46921;SDS011;44039;48.336;10.454;2022-07-25T01:02:12;132.13;;;126.53;;
46921;SDS011;44039;48.336;10.454;2022-07-25T01:05:00;131.05;;;125.15;;
46921;SDS011;44039;48.336;10.454;2022-07-25T01:07:47;128.73;;;122.93;;
46921;SDS011;44039;48.336;10.454;2022-07-25T01:10:35;129.10;;;123.35;;
46921;SDS011;44039;48.336;10.454;2022-07-25T01:13:23;128.82;;;123.25;;
46921;SDS011;44039;48.336;10.454;2022-07-25T01:16:10;127.22;;;121.70;;
46921;SDS011;44039;48.336;10.454;2022-07-25T01:18:57;133.65;;;127.30;;
46921;SDS011;44039;48.336;10.454;2022-07-25T01:21:44;128.27;;;122.88;;
46921;SDS011;44039;48.336;10.454;2022-07-25T01:24:32;127.78;;;122.30;;
46921;SDS011;44039;48.336;10.454;2022-07-25T01:27:20;128.02;;;122.63;;
46921;SDS011;44039;48.336;10.454;2022-07-25T01:30:07;126.22;;;120.75;;
46921;SDS011;44039;48.336;10.454;2022-07-25T01:32:55;126.05;;;120.72;;
46921;SDS011;44039;48.336;10.454;2022-07-25T01:35:43;128.68;;;123.07;;
46921;SDS011;44039;48.336;10.454;2022-07-25T01:38:31;126.70;;;121.28;;
46921;SDS011;44039;48.336;10.454;2022-07-25T01:41:18;129.05;;;123.45;;
46921;SDS011;44039;48.336;10.454;2022-07-25T01:44:08;127.75;;;122.20;;
46921;SDS011;44039;48.336;10.454;2022-07-25T01:46:55;128.13;;;122.13;;
46921;SDS011;44039;48.336;10.454;2022-07-25T01:49:43;126.13;;;120.47;;
46921;SDS011;44039;48.336;10.454;2022-07-25T01:52:30;125.78;;;120.25;;
46921;SDS011;44039;48.336;10.454;2022-07-25T01:55:17;127.50;;;121.93;;
46921;SDS011;44039;48.336;10.454;2022-07-25T01:58:04;130.90;;;125.32;;
46921;SDS011;44039;48.336;10.454;2022-07-25T02:00:53;128.32;;;122.28;;
46921;SDS011;44039;48.336;10.454;2022-07-25T02:03:40;129.25;;;123.47;;
46921;SDS011;44039;48.336;10.454;2022-07-25T02:06:27;126.88;;;121.05;;
46921;SDS011;44039;48.336;10.454;2022-07-25T02:09:14;127.45;;;121.68;;
46921;SDS011;44039;48.336;10.454;2022-07-25T02:12:01;124.95;;;119.25;;
46921;SDS011;44039;48.336;10.454;2022-07-25T02:14:48;125.85;;;120.30;;
46921;SDS011;44039;48.336;10.454;2022-07-25T02:17:35;120.72;;;115.50;;
46921;SDS011;44039;48.336;10.454;2022-07-25T02:20:24;121.70;;;116.30;;
46921;SDS011;44039;48.336;10.454;2022-07-25T02:23:11;122.03;;;116.43;;
46921;SDS011;44039;48.336;10.454;2022-07-25T02:25:58;119.35;;;114.20;;
46921;SDS011;44039;48.336;10.454;2022-07-25T02:28:45;122.53;;;116.93;;
46921;SDS011;44039;48.336;10.454;2022-07-25T02:31:32;119.10;;;114.05;;
46921;SDS011;44039;48.336;10.454;2022-07-25T02:34:19;117.13;;;111.90;;
46921;SDS011;44039;48.336;10.454;2022-07-25T02:37:06;120.93;;;115.15;;
46921;SDS011;44039;48.336;10.454;2022-07-25T02:39:53;118.20;;;112.95;;
46921;SDS011;44039;48.336;10.454;2022-07-25T02:42:40;116.38;;;111.00;;
46921;SDS011;44039;48.336;10.454;2022-07-25T02:45:27;119.03;;;113.72;;
46921;SDS011;44039;48.336;10.454;2022-07-25T02:48:14;119.65;;;114.15;;
46921;SDS011;44039;48.336;10.454;2022-07-25T02:51:01;113.85;;;109.03;;
46921;SDS011;44039;48.336;10.454;2022-07-25T02:53:48;118.18;;;113.07;;
46921;SDS011;44039;48.336;10.454;2022-07-25T02:56:44;119.07;;;113.57;;
46921;SDS011;44039;48.336;10.454;2022-07-25T02:59:31;115.80;;;109.93;;
46921;SDS011;44039;48.336;10.454;2022-07-25T03:02:18;113.50;;;108.60;;
46921;SDS011;44039;48.336;10.454;2022-07-25T03:05:09;118.03;;;112.93;;
46921;SDS011;44039;48.336;10.454;2022-07-25T03:07:57;115.18;;;110.43;;
46921;SDS011;44039;48.336;10.454;2022-07-25T03:10:44;117.63;;;112.30;;
46921;SDS011;44039;48.336;10.454;2022-07-25T03:13:31;115.30;;;110.18;;
46921;SDS011;44039;48.336;10.454;2022-07-25T03:16:18;111.60;;;106.57;;
46921;SDS011;44039;48.336;10.454;2022-07-25T03:19:06;120.03;;;114.07;;
46921;SDS011;44039;48.336;10.454;2022-07-25T03:21:55;116.35;;;111.30;;
46921;SDS011;44039;48.336;10.454;2022-07-25T03:24:42;117.65;;;112.55;;
46921;SDS011;44039;48.336;10.454;2022-07-25T03:27:29;116.70;;;111.60;;
46921;SDS011;44039;48.336;10.454;2022-07-25T03:30:16;115.57;;;110.47;;
46921;SDS011;44039;48.336;10.454;2022-07-25T03:33:03;119.13;;;113.35;;
46921;SDS011;44039;48.336;10.454;2022-07-25T03:35:50;117.25;;;112.05;;
46921;SDS011;44039;48.336;10.454;2022-07-25T03:38:37;116.28;;;111.05;;
46921;SDS011;44039;48.336;10.454;2022-07-25T03:41:25;116.43;;;111.25;;
46921;SDS011;44039;48.336;10.454;2022-07-25T03:44:13;115.88;;;110.55;;
46921;SDS011;44039;48.336;10.454;2022-07-25T03:47:00;115.97;;;110.40;;
46921;SDS011;44039;48.336;10.454;2022-07-25T03:49:47;113.43;;;108.32;;
46921;SDS011;44039;48.336;10.454;2022-07-25T03:52:34;112.22;;;107.18;;
46921;SDS011;44039;48.336;10.454;2022-07-25T03:55:21;114.53;;;109.32;;
46921;SDS011;44039;48.336;10.454;2022-07-25T03:58:08;116.15;;;110.95;;
46921;SDS011;44039;48.336;10.454;2022-07-25T04:00:55;115.25;;;110.07;;
46921;SDS011;44039;48.336;10.454;2022-07-25T04:03:44;116.13;;;110.93;;
46921;SDS011;44039;48.336;10.454;2022-07-25T04:06:31;116.65;;;111.25;;
46921;SDS011;44039;48.336;10.454;2022-07-25T04:09:18;116.63;;;111.22;;
46921;SDS011;44039;48.336;10.454;2022-07-25T04:12:05;114.15;;;109.13;;
46921;SDS011;44039;48.336;10.454;2022-07-25T04:14:52;117.18;;;111.25;;
46921;SDS011;44039;48.336;10.454;2022-07-25T04:17:39;114.93;;;109.93;;
46921;SDS011;44039;48.336;10.454;2022-07-25T04:20:27;118.78;;;113.40;;
46921;SDS011;44039;48.336;10.454;2022-07-25T04:23:14;115.22;;;109.93;;
46921;SDS011;44039;48.336;10.454;2022-07-25T04:26:01;115.85;;;110.60;;
46921;SDS011;44039;48.336;10.454;2022-07-25T04:28:49;120.78;;;114.85;;
46921;SDS011;44039;48.336;10.454;2022-07-25T04:31:36;121.18;;;114.93;;
46921;SDS011;44039;48.336;10.454;2022-07-25T04:34:23;123.55;;;117.78;;
46921;SDS011;44039;48.336;10.454;2022-07-25T04:37:10;120.68;;;115.18;;
46921;SDS011;44039;48.336;10.454;2022-07-25T04:39:57;122.78;;;117.25;;
46921;SDS011;44039;48.336;10.454;2022-07-25T04:42:44;123.22;;;117.82;;
46921;SDS011;44039;48.336;10.454;2022-07-25T04:45:31;123.80;;;118.30;;
46921;SDS011;44039;48.336;10.454;2022-07-25T04:48:20;125.82;;;119.97;;
46921;SDS011;44039;48.336;10.454;2022-07-25T04:51:07;128.13;;;122.70;;
46921;SDS011;44039;48.336;10.454;2022-07-25T04:53:56;130.65;;;125.00;;
46921;SDS011;44039;48.336;10.454;2022-07-25T04:56:43;130.10;;;124.32;;
46921;SDS011;44039;48.336;10.454;2022-07-25T04:59:30;131.35;;;125.65;;
46921;SDS011;44039;48.336;10.454;2022-07-25T05:02:17;129.60;;;124.00;;
46921;SDS011;44039;48.336;10.454;2022-07-25T05:05:04;132.15;;;126.07;;
46921;SDS011;44039;48.336;10.454;2022-07-25T05:07:55;134.70;;;128.88;;
46921;SDS011;44039;48.336;10.454;2022-07-25T05:10:44;130.60;;;125.10;;
46921;SDS011;44039;48.336;10.454;2022-07-25T05:13:31;132.93;;;127.10;;
46921;SDS011;44039;48.336;10.454;2022-07-25T05:16:18;140.52;;;133.82;;
46921;SDS011;44039;48.336;10.454;2022-07-25T05:19:05;145.68;;;138.90;;
46921;SDS011;44039;48.336;10.454;2022-07-25T05:21:52;146.15;;;139.93;;
46921;SDS011;44039;48.336;10.454;2022-07-25T05:24:39;142.38;;;136.38;;
46921;SDS011;44039;48.336;10.454;2022-07-25T05:27:26;143.05;;;136.85;;
46921;SDS011;44039;48.336;10.454;2022-07-25T05:30:13;146.77;;;140.38;;
46921;SDS011;44039;48.336;10.454;2022-07-25T05:33:00;156.30;;;149.85;;
46921;SDS011;44039;48.336;10.454;2022-07-25T05:35:47;165.63;;;158.63;;
46921;SDS011;44039;48.336;10.454;2022-07-25T05:38:34;160.82;;;153.93;;
46921;SDS011;44039;48.336;10.454;2022-07-25T05:41:21;158.02;;;151.43;;
46921;SDS011;44039;48.336;10.454;2022-07-25T05:44:08;163.38;;;156.50;;
46921;SDS011;44039;48.336;10.454;2022-07-25T05:46:56;163.13;;;156.45;;
46921;SDS011;44039;48.336;10.454;2022-07-25T05:49:43;164.70;;;157.70;;
46921;SDS011;44039;48.336;10.454;2022-07-25T05:52:30;165.43;;;158.45;;
46921;SDS011;44039;48.336;10.454;2022-07-25T05:55:17;162.82;;;156.27;;
46921;SDS011;44039;48.336;10.454;2022-07-25T05:58:04;160.88;;;153.98;;
46921;SDS011;44039;48.336;10.454;2022-07-25T06:00:51;170.52;;;163.57;;
46921;SDS011;44039;48.336;10.454;2022-07-25T06:03:39;179.50;;;172.35;;
46921;SDS011;44039;48.336;10.454;2022-07-25T06:06:26;191.63;;;184.10;;
46921;SDS011;44039;48.336;10.454;2022-07-25T06:09:13;195.27;;;187.50;;
46921;SDS011;44039;48.336;10.454;2022-07-25T06:12:01;204.20;;;196.52;;
46921;SDS011;44039;48.336;10.454;2022-07-25T06:14:48;198.40;;;190.93;;
46921;SDS011;44039;48.336;10.454;2022-07-25T06:17:35;204.02;;;196.32;;
46921;SDS011;44039;48.336;10.454;2022-07-25T06:20:22;207.77;;;199.90;;
46921;SDS011;44039;48.336;10.454;2022-07-25T06:23:09;210.00;;;202.18;;
46921;SDS011;44039;48.336;10.454;2022-07-25T06:25:57;204.73;;;197.13;;
46921;SDS011;44039;48.336;10.454;2022-07-25T06:28:44;212.90;;;204.82;;
46921;SDS011;44039;48.336;10.454;2022-07-25T06:31:31;218.00;;;209.55;;
46921;SDS011;44039;48.336;10.454;2022-07-25T06:34:18;236.18;;;227.82;;
46921;SDS011;44039;48.336;10.454;2022-07-25T06:37:05;229.40;;;221.20;;
46921;SDS011;44039;48.336;10.454;2022-07-25T06:39:52;222.48;;;214.57;;
46921;SDS011;44039;48.336;10.454;2022-07-25T06:42:40;223.75;;;215.70;;
46921;SDS011;44039;48.336;10.454;2022-07-25T06:45:28;235.32;;;226.93;;
46921;SDS011;44039;48.336;10.454;2022-07-25T06:48:15;237.20;;;228.63;;
46921;SDS011;44039;48.336;10.454;2022-07-25T06:51:03;230.18;;;221.73;;
46921;SDS011;44039;48.336;10.454;2022-07-25T06:53:51;236.20;;;227.60;;
46921;SDS011;44039;48.336;10.454;2022-07-25T06:56:38;232.93;;;224.75;;
46921;SDS011;44039;48.336;10.454;2022-07-25T06:59:25;238.18;;;229.63;;
46921;SDS011;44039;48.336;10.454;2022-07-25T07:02:12;240.02;;;231.40;;
46921;SDS011;44039;48.336;10.454;2022-07-25T07:04:59;236.23;;;227.63;;
46921;SDS011;44039;48.336;10.454;2022-07-25T07:07:46;229.88;;;221.52;;
46921;SDS011;44039;48.336;10.454;2022-07-25T07:10:34;238.77;;;230.18;;
46921;SDS011;44039;48.336;10.454;2022-07-25T07:13:21;240.23;;;231.23;;
46921;SDS011;44039;48.336;10.454;2022-07-25T07:16:10;235.82;;;227.38;;
46921;SDS011;44039;48.336;10.454;2022-07-25T07:18:57;240.20;;;231.02;;
46921;SDS011;44039;48.336;10.454;2022-07-25T07:21:45;246.35;;;237.38;;
46921;SDS011;44039;48.336;10.454;2022-07-25T07:24:33;245.50;;;236.57;;
46921;SDS011;44039;48.336;10.454;2022-07-25T07:27:25;240.27;;;231.57;;
46921;SDS011;44039;48.336;10.454;2022-07-25T07:30:13;240.70;;;232.13;;
46921;SDS011;44039;48.336;10.454;2022-07-25T07:33:05;248.15;;;239.30;;
46921;SDS011;44039;48.336;10.454;2022-07-25T07:35:52;243.10;;;234.52;;
46921;SDS011;44039;48.336;10.454;2022-07-25T07:38:41;246.02;;;237.23;;
46921;SDS011;44039;48.336;10.454;2022-07-25T07:41:30;247.35;;;238.38;;
46921;SDS011;44039;48.336;10.454;2022-07-25T07:44:17;249.88;;;241.05;;
46921;SDS011;44039;48.336;10.454;2022-07-25T07:47:04;252.50;;;243.43;;
46921;SDS011;44039;48.336;10.454;2022-07-25T07:50:00;259.88;;;250.73;;
46921;SDS011;44039;48.336;10.454;2022-07-25T07:52:47;254.27;;;245.23;;
46921;SDS011;44039;48.336;10.454;2022-07-25T07:55:35;248.23;;;239.55;;
46921;SDS011;44039;48.336;10.454;2022-07-25T07:58:31;258.70;;;249.73;;
46921;SDS011;44039;48.336;10.454;2022-07-25T08:01:18;258.05;;;248.93;;
46921;SDS011;44039;48.336;10.454;2022-07-25T08:04:05;253.45;;;244.48;;
46921;SDS011;44039;48.336;10.454;2022-07-25T08:06:52;255.02;;;246.13;;
46921;SDS011;44039;48.336;10.454;2022-07-25T08:09:39;261.83;;;252.57;;
46921;SDS011;44039;48.336;10.454;2022-07-25T08:12:26;258.88;;;249.88;;
46921;SDS011;44039;48.336;10.454;2022-07-25T08:15:13;262.15;;;253.10;;
46921;SDS011;44039;48.336;10.454;2022-07-25T08:18:01;253.18;;;244.25;;
46921;SDS011;44039;48.336;10.454;2022-07-25T08:21:03;258.95;;;250.00;;
46921;SDS011;44039;48.336;10.454;2022-07-25T08:23:52;263.52;;;254.40;;
46921;SDS011;44039;48.336;10.454;2022-07-25T08:26:39;272.23;;;262.65;;
46921;SDS011;44039;48.336;10.454;2022-07-25T08:29:26;273.40;;;263.83;;
46921;SDS011;44039;48.336;10.454;2022-07-25T08:32:14;271.42;;;261.92;;
46921;SDS011;44039;48.336;10.454;2022-07-25T08:35:01;263.27;;;254.07;;
46921;SDS011;44039;48.336;10.454;2022-07-25T08:37:48;261.20;;;252.10;;
46921;SDS011;44039;48.336;10.454;2022-07-25T08:40:35;265.83;;;256.30;;
46921;SDS011;44039;48.336;10.454;2022-07-25T08:43:22;263.98;;;254.77;;
46921;SDS011;44039;48.336;10.454;2022-07-25T08:46:09;260.23;;;251.05;;
46921;SDS011;44039;48.336;10.454;2022-07-25T08:48:57;265.42;;;255.60;;
46921;SDS011;44039;48.336;10.454;2022-07-25T08:51:45;260.17;;;250.75;;
46921;SDS011;44039;48.336;10.454;2022-07-25T08:54:37;259.35;;;250.40;;
46921;SDS011;44039;48.336;10.454;2022-07-25T08:57:24;263.48;;;254.15;;
46921;SDS011;44039;48.336;10.454;2022-07-25T09:00:12;264.83;;;255.65;;
46921;SDS011;44039;48.336;10.454;2022-07-25T09:03:03;263.23;;;253.98;;
46921;SDS011;44039;48.336;10.454;2022-07-25T09:05:52;266.80;;;257.30;;
46921;SDS011;44039;48.336;10.454;2022-07-25T09:08:48;260.83;;;251.68;;
46921;SDS011;44039;48.336;10.454;2022-07-25T09:11:40;263.23;;;254.02;;
46921;SDS011;44039;48.336;10.454;2022-07-25T09:14:27;270.85;;;261.05;;
46921;SDS011;44039;48.336;10.454;2022-07-25T09:17:18;266.67;;;257.48;;
46921;SDS011;44039;48.336;10.454;2022-07-25T09:20:09;266.40;;;257.08;;
46921;SDS011;44039;48.336;10.454;2022-07-25T09:23:03;267.92;;;258.55;;
46921;SDS011;44039;48.336;10.454;2022-07-25T09:25:50;273.48;;;263.90;;
46921;SDS011;44039;48.336;10.454;2022-07-25T09:28:38;278.58;;;268.92;;
46921;SDS011;44039;48.336;10.454;2022-07-25T09:31:44;281.40;;;271.40;;
46921;SDS011;44039;48.336;10.454;2022-07-25T09:37:25;275.73;;;266.10;;
46921;SDS011;44039;48.336;10.454;2022-07-25T09:40:13;276.15;;;266.33;;
46921;SDS011;44039;48.336;10.454;2022-07-25T09:43:01;279.10;;;269.52;;
46921;SDS011;44039;48.336;10.454;2022-07-25T09:45:49;275.90;;;266.40;;
46921;SDS011;44039;48.336;10.454;2022-07-25T09:48:38;278.23;;;268.60;;
46921;SDS011;44039;48.336;10.454;2022-07-25T09:51:26;274.30;;;264.95;;
46921;SDS011;44039;48.336;10.454;2022-07-25T09:54:14;280.00;;;270.00;;
46921;SDS011;44039;48.336;10.454;2022-07-25T09:57:01;272.30;;;262.90;;
46921;SDS011;44039;48.336;10.454;2022-07-25T09:59:48;275.52;;;266.30;;
46921;SDS011;44039;48.336;10.454;2022-07-25T10:02:40;276.60;;;266.95;;
46921;SDS011;44039;48.336;10.454;2022-07-25T10:08:40;277.85;;;268.50;;
46921;SDS011;44039;48.336;10.454;2022-07-25T10:11:28;277.05;;;267.45;;
46921;SDS011;44039;48.336;10.454;2022-07-25T10:14:18;275.85;;;266.42;;
46921;SDS011;44039;48.336;10.454;2022-07-25T10:17:05;271.77;;;262.63;;
46921;SDS011;44039;48.336;10.454;2022-07-25T10:19:52;280.80;;;271.33;;
46921;SDS011;44039;48.336;10.454;2022-07-25T10:22:44;279.67;;;270.42;;
46921;SDS011;44039;48.336;10.454;2022-07-25T10:25:42;286.67;;;276.95;;
46921;SDS011;44039;48.336;10.454;2022-07-25T10:28:45;290.60;;;280.50;;
46921;SDS011;44039;48.336;10.454;2022-07-25T10:31:34;287.25;;;277.73;;
46921;SDS011;44039;48.336;10.454;2022-07-25T10:34:27;286.27;;;276.65;;
46921;SDS011;44039;48.336;10.454;2022-07-25T10:37:25;289.10;;;279.23;;
46921;SDS011;44039;48.336;10.454;2022-07-25T10:40:23;283.90;;;274.27;;
46921;SDS011;44039;48.336;10.454;2022-07-25T10:43:13;282.85;;;273.15;;
46921;SDS011;44039;48.336;10.454;2022-07-25T10:46:10;278.63;;;269.33;;
46921;SDS011;44039;48.336;10.454;2022-07-25T10:49:01;284.15;;;274.42;;
46921;SDS011;44039;48.336;10.454;2022-07-25T10:51:54;280.02;;;270.17;;
46921;SDS011;44039;48.336;10.454;2022-07-25T10:54:53;282.17;;;272.73;;
46921;SDS011;44039;48.336;10.454;2022-07-25T10:57:41;280.92;;;271.48;;
46921;SDS011;44039;48.336;10.454;2022-07-25T11:00:48;284.10;;;274.52;;
46921;SDS011;44039;48.336;10.454;2022-07-25T11:03:37;281.15;;;271.33;;
46921;SDS011;44039;48.336;10.454;2022-07-25T11:06:34;278.08;;;268.67;;
46921;SDS011;44039;48.336;10.454;2022-07-25T11:09:24;279.98;;;270.17;;
46921;SDS011;44039;48.336;10.454;2022-07-25T11:12:14;277.30;;;267.88;;
46921;SDS011;44039;48.336;10.454;2022-07-25T11:15:05;281.85;;;272.25;;
46921;SDS011;44039;48.336;10.454;2022-07-25T11:17:53;294.00;;;283.92;;
46921;SDS011;44039;48.336;10.454;2022-07-25T11:20:41;290.70;;;281.08;;
46921;SDS011;44039;48.336;10.454;2022-07-25T11:23:28;282.02;;;272.65;;
46921;SDS011;44039;48.336;10.454;2022-07-25T11:26:15;285.38;;;275.75;;
46921;SDS011;44039;48.336;10.454;2022-07-25T11:29:03;288.77;;;278.48;;
46921;SDS011;44039;48.336;10.454;2022-07-25T11:32:07;284.25;;;274.45;;
46921;SDS011;44039;48.336;10.454;2022-07-25T11:34:56;281.45;;;272.02;;
46921;SDS011;44039;48.336;10.454;2022-07-25T11:37:43;282.10;;;272.60;;
46921;SDS011;44039;48.336;10.454;2022-07-25T11:40:40;280.70;;;271.30;;
46921;SDS011;44039;48.336;10.454;2022-07-25T11:43:29;284.23;;;274.75;;
46921;SDS011;44039;48.336;10.454;2022-07-25T11:46:16;288.38;;;278.48;;
46921;SDS011;44039;48.336;10.454;2022-07-25T11:49:04;294.02;;;283.35;;
46921;SDS011;44039;48.336;10.454;2022-07-25T11:51:52;290.23;;;280.30;;
46921;SDS011;44039;48.336;10.454;2022-07-25T11:54:48;287.63;;;277.70;;
46921;SDS011;44039;48.336;10.454;2022-07-25T11:57:40;290.27;;;280.48;;
46921;SDS011;44039;48.336;10.454;2022-07-25T12:00:33;284.85;;;275.35;;
46921;SDS011;44039;48.336;10.454;2022-07-25T12:03:25;290.50;;;280.67;;
46921;SDS011;44039;48.336;10.454;2022-07-25T12:06:27;284.13;;;274.55;;
46921;SDS011;44039;48.336;10.454;2022-07-25T12:09:16;289.83;;;279.67;;
46921;SDS011;44039;48.336;10.454;2022-07-25T12:12:05;291.63;;;281.33;;
46921;SDS011;44039;48.336;10.454;2022-07-25T12:14:52;288.10;;;278.45;;
46921;SDS011;44039;48.336;10.454;2022-07-25T12:17:40;292.02;;;282.23;;
46921;SDS011;44039;48.336;10.454;2022-07-25T12:20:29;293.70;;;283.70;;
46921;SDS011;44039;48.336;10.454;2022-07-25T12:23:21;292.52;;;282.50;;
46921;SDS011;44039;48.336;10.454;2022-07-25T12:26:09;292.20;;;282.25;;
46921;SDS011;44039;48.336;10.454;2022-07-25T12:28:56;297.60;;;286.60;;
46921;SDS011;44039;48.336;10.454;2022-07-25T12:31:43;291.15;;;281.33;;
46921;SDS011;44039;48.336;10.454;2022-07-25T12:34:31;288.92;;;279.23;;
46921;SDS011;44039;48.336;10.454;2022-07-25T12:37:18;292.42;;;282.50;;
46921;SDS011;44039;48.336;10.454;2022-07-25T12:40:07;295.58;;;285.58;;
46921;SDS011;44039;48.336;10.454;2022-07-25T12:42:55;288.17;;;278.45;;
46921;SDS011;44039;48.336;10.454;2022-07-25T12:45:42;287.13;;;277.38;;
46921;SDS011;44039;48.336;10.454;2022-07-25T12:48:30;286.10;;;276.27;;
46921;SDS011;44039;48.336;10.454;2022-07-25T12:51:17;287.02;;;277.35;;
46921;SDS011;44039;48.336;10.454;2022-07-25T12:54:04;287.30;;;277.33;;
46921;SDS011;44039;48.336;10.454;2022-07-25T12:56:51;288.92;;;279.33;;
46921;SDS011;44039;48.336;10.454;2022-07-25T12:59:40;289.70;;;279.95;;
46921;SDS011;44039;48.336;10.454;2022-07-25T13:02:28;294.25;;;284.33;;
46921;SDS011;44039;48.336;10.454;2022-07-25T13:05:15;292.27;;;282.48;;
46921;SDS011;44039;48.336;10.454;2022-07-25T13:08:03;284.52;;;274.63;;
46921;SDS011;44039;48.336;10.454;2022-07-25T13:10:51;285.90;;;276.23;;
46921;SDS011;44039;48.336;10.454;2022-07-25T13:13:38;285.55;;;276.05;;
46921;SDS011;44039;48.336;10.454;2022-07-25T13:16:25;286.58;;;277.02;;
46921;SDS011;44039;48.336;10.454;2022-07-25T13:19:13;285.88;;;276.00;;
46921;SDS011;44039;48.336;10.454;2022-07-25T13:22:01;291.55;;;281.40;;
46921;SDS011;44039;48.336;10.454;2022-07-25T13:24:49;287.27;;;277.60;;
46921;SDS011;44039;48.336;10.454;2022-07-25T13:27:36;291.00;;;281.23;;
46921;SDS011;44039;48.336;10.454;2022-07-25T13:30:24;290.38;;;280.58;;
46921;SDS011;44039;48.336;10.454;2022-07-25T13:33:12;292.35;;;282.15;;
46921;SDS011;44039;48.336;10.454;2022-07-25T13:35:59;286.92;;;277.33;;
46921;SDS011;44039;48.336;10.454;2022-07-25T13:38:46;289.75;;;280.00;;
46921;SDS011;44039;48.336;10.454;2022-07-25T13:41:33;286.33;;;276.60;;
46921;SDS011;44039;48.336;10.454;2022-07-25T13:44:20;284.15;;;274.55;;
46921;SDS011;44039;48.336;10.454;2022-07-25T13:47:08;289.88;;;279.77;;
46921;SDS011;44039;48.336;10.454;2022-07-25T13:49:55;285.10;;;275.23;;
46921;SDS011;44039;48.336;10.454;2022-07-25T13:52:42;286.75;;;277.27;;
46921;SDS011;44039;48.336;10.454;2022-07-25T13:55:32;285.88;;;276.33;;
46921;SDS011;44039;48.336;10.454;2022-07-25T13:58:19;290.02;;;280.13;;
46921;SDS011;44039;48.336;10.454;2022-07-25T14:01:06;294.63;;;284.65;;
46921;SDS011;44039;48.336;10.454;2022-07-25T14:03:54;289.48;;;279.70;;
46921;SDS011;44039;48.336;10.454;2022-07-25T14:06:41;286.17;;;276.42;;
46921;SDS011;44039;48.336;10.454;2022-07-25T14:09:29;292.60;;;282.60;;
46921;SDS011;44039;48.336;10.454;2022-07-25T14:12:16;286.60;;;276.25;;
46921;SDS011;44039;48.336;10.454;2022-07-25T14:15:03;287.80;;;277.85;;
46921;SDS011;44039;48.336;10.454;2022-07-25T14:17:51;282.13;;;272.70;;
46921;SDS011;44039;48.336;10.454;2022-07-25T14:20:38;285.83;;;276.00;;
46921;SDS011;44039;48.336;10.454;2022-07-25T14:23:25;280.98;;;271.50;;
46921;SDS011;44039;48.336;10.454;2022-07-25T14:26:15;285.15;;;275.70;;
46921;SDS011;44039;48.336;10.454;2022-07-25T14:29:03;291.27;;;280.77;;
46921;SDS011;44039;48.336;10.454;2022-07-25T14:31:52;289.58;;;279.80;;
46921;SDS011;44039;48.336;10.454;2022-07-25T14:34:39;283.73;;;274.27;;
46921;SDS011;44039;48.336;10.454;2022-07-25T14:37:27;284.30;;;274.75;;
46921;SDS011;44039;48.336;10.454;2022-07-25T14:40:16;282.98;;;273.58;;
46921;SDS011;44039;48.336;10.454;2022-07-25T14:43:03;285.83;;;276.40;;
46921;SDS011;44039;48.336;10.454;2022-07-25T14:45:50;286.77;;;277.15;;
46921;SDS011;44039;48.336;10.454;2022-07-25T14:48:37;278.77;;;269.35;;
46921;SDS011;44039;48.336;10.454;2022-07-25T14:51:25;282.70;;;273.30;;
46921;SDS011;44039;48.336;10.454;2022-07-25T14:54:12;285.20;;;275.75;;
46921;SDS011;44039;48.336;10.454;2022-07-25T14:56:59;284.05;;;274.60;;
46921;SDS011;44039;48.336;10.454;2022-07-25T14:59:46;285.17;;;275.38;;
46921;SDS011;44039;48.336;10.454;2022-07-25T15:02:33;273.85;;;264.65;;
46921;SDS011;44039;48.336;10.454;2022-07-25T15:05:20;282.67;;;272.75;;
46921;SDS011;44039;48.336;10.454;2022-07-25T15:08:08;281.95;;;272.38;;
46921;SDS011;44039;48.336;10.454;2022-07-25T15:10:57;282.13;;;272.58;;
46921;SDS011;44039;48.336;10.454;2022-07-25T15:13:44;281.48;;;271.98;;
46921;SDS011;44039;48.336;10.454;2022-07-25T15:16:32;279.45;;;270.05;;
46921;SDS011;44039;48.336;10.454;2022-07-25T15:19:19;273.65;;;264.10;;
46921;SDS011;44039;48.336;10.454;2022-07-25T15:22:06;272.02;;;262.83;;
46921;SDS011;44039;48.336;10.454;2022-07-25T15:24:53;274.75;;;265.35;;
46921;SDS011;44039;48.336;10.454;2022-07-25T15:28:00;271.27;;;262.20;;
46921;SDS011;44039;48.336;10.454;2022-07-25T15:30:47;275.73;;;266.52;;
46921;SDS011;44039;48.336;10.454;2022-07-25T15:33:35;274.00;;;264.83;;
46921;SDS011;44039;48.336;10.454;2022-07-25T15:36:22;269.83;;;260.73;;
46921;SDS011;44039;48.336;10.454;2022-07-25T15:39:15;269.48;;;260.20;;
46921;SDS011;44039;48.336;10.454;2022-07-25T15:42:02;268.95;;;260.00;;
46921;SDS011;44039;48.336;10.454;2022-07-25T15:44:49;269.83;;;260.70;;
46921;SDS011;44039;48.336;10.454;2022-07-25T15:47:56;267.38;;;258.48;;